TAM3334 SBGR-SBVT
Flight info
| Callsign | TAM3334 |
|---|---|
| Flight time | 1h 1m |
| Altitude | 35000 |
| Route | UREMI UZ42 IMDAB DCT SEGLI DCT TODET |
| Aircraft | A321/M-SDE3FGHIRWY/LB1 |
Departure
| Time | 2026-04-18 03:35 |
|---|---|
| Airport | São Paulo/Guarulhos–Governor André Franco Montoro International Airport (SBGR) |
Arrival
| Time | 2026-04-18 04:36 |
|---|---|
| Airport | Eurico de Aguiar Salles International Airport (SBVT) |
| Time | Latitude | Longitude | Altitude | Speed | Heading |
|---|---|---|---|---|---|
| 2026-04-18 03:11 | -23.42792 | -46.48071 | 2467 ft | 0 kts | 84° |
| 2026-04-18 03:28 | -23.42793 | -46.48083 | 2470 ft | 2 kts | 83° |
| 2026-04-18 03:28 | -23.42794 | -46.48110 | 2467 ft | 4 kts | 110° |
| 2026-04-18 03:29 | -23.42782 | -46.48132 | 2470 ft | 4 kts | 148° |
| 2026-04-18 03:29 | -23.42758 | -46.48138 | 2467 ft | 4 kts | 175° |
| 2026-04-18 03:29 | -23.42775 | -46.48137 | 2467 ft | 4 kts | 174° |
| 2026-04-18 03:29 | -23.42786 | -46.48135 | 2469 ft | 0 kts | 174° |
| 2026-04-18 03:32 | -23.42818 | -46.48132 | 2470 ft | 8 kts | 174° |
| 2026-04-18 03:32 | -23.42900 | -46.48125 | 2469 ft | 15 kts | 191° |
| 2026-04-18 03:32 | -23.43021 | -46.48134 | 2468 ft | 20 kts | 174° |
| 2026-04-18 03:33 | -23.43153 | -46.48115 | 2468 ft | 19 kts | 158° |
| 2026-04-18 03:33 | -23.43263 | -46.48077 | 2468 ft | 16 kts | 163° |
| 2026-04-18 03:33 | -23.43340 | -46.48011 | 2467 ft | 13 kts | 82° |
| 2026-04-18 03:33 | -23.43335 | -46.47988 | 2467 ft | 0 kts | 74° |
| 2026-04-18 03:34 | -23.43298 | -46.47850 | 2466 ft | 50 kts | 73° |
| 2026-04-18 03:34 | -23.43140 | -46.47274 | 2467 ft | 108 kts | 74° |
| 2026-04-18 03:34 | -23.42883 | -46.46316 | 2471 ft | 155 kts | 73° |
| 2026-04-18 03:34 | -23.42532 | -46.45029 | 2497 ft | 191 kts | 73° |
| 2026-04-18 03:35 | -23.42165 | -46.43667 | 3115 ft | 186 kts | 74° |
| 2026-04-18 03:35 | -23.41816 | -46.42265 | 3505 ft | 199 kts | 73° |
| 2026-04-18 03:35 | -23.41370 | -46.40791 | 3834 ft | 211 kts | 69° |
| 2026-04-18 03:35 | -23.40880 | -46.39244 | 4193 ft | 223 kts | 70° |
| 2026-04-18 03:36 | -23.40379 | -46.37568 | 4465 ft | 243 kts | 73° |
| 2026-04-18 03:36 | -23.40190 | -46.35678 | 4795 ft | 262 kts | 96° |
| 2026-04-18 03:36 | -23.40679 | -46.33718 | 5189 ft | 276 kts | 110° |
| 2026-04-18 03:36 | -23.41364 | -46.31735 | 5721 ft | 283 kts | 111° |
| 2026-04-18 03:37 | -23.42062 | -46.29714 | 6335 ft | 288 kts | 111° |
| 2026-04-18 03:37 | -23.42760 | -46.27648 | 6962 ft | 291 kts | 111° |
| 2026-04-18 03:37 | -23.43189 | -46.25492 | 7598 ft | 295 kts | 92° |
| 2026-04-18 03:37 | -23.43114 | -46.23253 | 8265 ft | 297 kts | 86° |
| 2026-04-18 03:38 | -23.42957 | -46.21000 | 8914 ft | 300 kts | 86° |
| 2026-04-18 03:38 | -23.42805 | -46.18728 | 9576 ft | 303 kts | 87° |
| 2026-04-18 03:38 | -23.42662 | -46.16418 | 10145 ft | 309 kts | 88° |
| 2026-04-18 03:38 | -23.42523 | -46.14030 | 10439 ft | 324 kts | 88° |
| 2026-04-18 03:39 | -23.42381 | -46.11517 | 10686 ft | 341 kts | 88° |
| 2026-04-18 03:39 | -23.42234 | -46.08887 | 10961 ft | 355 kts | 88° |
| 2026-04-18 03:39 | -23.42082 | -46.06170 | 11385 ft | 363 kts | 88° |
| 2026-04-18 03:39 | -23.41928 | -46.03408 | 11946 ft | 367 kts | 88° |
| 2026-04-18 03:40 | -23.41772 | -46.00615 | 12532 ft | 370 kts | 87° |
| 2026-04-18 03:40 | -23.41615 | -45.97808 | 13096 ft | 374 kts | 87° |
| 2026-04-18 03:40 | -23.41457 | -45.94974 | 13676 ft | 376 kts | 87° |
| 2026-04-18 03:40 | -23.41296 | -45.92125 | 14217 ft | 379 kts | 87° |
| 2026-04-18 03:41 | -23.41134 | -45.89244 | 14700 ft | 382 kts | 87° |
| 2026-04-18 03:41 | -23.40971 | -45.86351 | 15185 ft | 385 kts | 87° |
| 2026-04-18 03:41 | -23.40804 | -45.83418 | 15675 ft | 388 kts | 87° |
| 2026-04-18 03:41 | -23.40638 | -45.80516 | 16150 ft | 391 kts | 87° |
| 2026-04-18 03:42 | -23.40468 | -45.77546 | 16625 ft | 395 kts | 87° |
| 2026-04-18 03:42 | -23.40296 | -45.74555 | 17104 ft | 398 kts | 87° |
| 2026-04-18 03:42 | -23.40121 | -45.71533 | 17571 ft | 401 kts | 87° |
| 2026-04-18 03:42 | -23.39945 | -45.68498 | 18034 ft | 404 kts | 87° |
| 2026-04-18 03:43 | -23.39767 | -45.65434 | 18450 ft | 407 kts | 87° |
| 2026-04-18 03:43 | -23.39587 | -45.62345 | 18850 ft | 410 kts | 87° |
| 2026-04-18 03:43 | -23.39405 | -45.59236 | 19238 ft | 413 kts | 87° |
| 2026-04-18 03:43 | -23.39221 | -45.56105 | 19633 ft | 416 kts | 87° |
| 2026-04-18 03:44 | -23.39036 | -45.52950 | 20021 ft | 419 kts | 87° |
| 2026-04-18 03:44 | -23.38644 | -45.49796 | 20412 ft | 423 kts | 78° |
| 2026-04-18 03:44 | -23.37980 | -45.46674 | 20809 ft | 425 kts | 77° |
| 2026-04-18 03:44 | -23.37291 | -45.43532 | 21200 ft | 428 kts | 77° |
| 2026-04-18 03:45 | -23.36604 | -45.40371 | 21581 ft | 431 kts | 77° |
| 2026-04-18 03:45 | -23.35916 | -45.37179 | 21975 ft | 434 kts | 77° |
| 2026-04-18 03:45 | -23.35229 | -45.33977 | 22360 ft | 436 kts | 77° |
| 2026-04-18 03:45 | -23.34540 | -45.30754 | 22748 ft | 439 kts | 77° |
| 2026-04-18 03:46 | -23.33844 | -45.27509 | 23106 ft | 442 kts | 77° |
| 2026-04-18 03:46 | -23.33144 | -45.24244 | 23472 ft | 445 kts | 77° |
| 2026-04-18 03:46 | -23.32439 | -45.20958 | 23795 ft | 447 kts | 77° |
| 2026-04-18 03:46 | -23.31728 | -45.17657 | 24078 ft | 450 kts | 77° |
| 2026-04-18 03:47 | -23.31012 | -45.14331 | 24383 ft | 452 kts | 77° |
| 2026-04-18 03:47 | -23.30293 | -45.10997 | 24680 ft | 454 kts | 77° |
| 2026-04-18 03:47 | -23.29570 | -45.07643 | 24947 ft | 457 kts | 77° |
| 2026-04-18 03:47 | -23.28841 | -45.04264 | 25237 ft | 460 kts | 77° |
| 2026-04-18 03:48 | -23.28110 | -45.00875 | 25525 ft | 462 kts | 77° |
| 2026-04-18 03:48 | -23.27373 | -44.97468 | 25790 ft | 464 kts | 77° |
| 2026-04-18 03:48 | -23.26631 | -44.94039 | 26060 ft | 467 kts | 77° |
| 2026-04-18 03:48 | -23.25884 | -44.90596 | 26331 ft | 469 kts | 76° |
| 2026-04-18 03:49 | -23.25132 | -44.87139 | 26618 ft | 472 kts | 76° |
| 2026-04-18 03:49 | -23.24373 | -44.83655 | 26875 ft | 474 kts | 76° |
| 2026-04-18 03:49 | -23.23611 | -44.80156 | 27138 ft | 476 kts | 76° |
| 2026-04-18 03:49 | -23.22846 | -44.76648 | 27396 ft | 478 kts | 76° |
| 2026-04-18 03:50 | -23.22078 | -44.73126 | 27667 ft | 480 kts | 76° |
| 2026-04-18 03:50 | -23.21305 | -44.69586 | 27919 ft | 482 kts | 76° |
| 2026-04-18 03:50 | -23.20527 | -44.66033 | 28153 ft | 485 kts | 76° |
| 2026-04-18 03:50 | -23.19694 | -44.62524 | 28394 ft | 486 kts | 71° |
| 2026-04-18 03:51 | -23.18448 | -44.59110 | 28611 ft | 487 kts | 65° |
| 2026-04-18 03:51 | -23.17094 | -44.55731 | 28869 ft | 489 kts | 65° |
| 2026-04-18 03:51 | -23.15733 | -44.52340 | 29103 ft | 491 kts | 65° |
| 2026-04-18 03:51 | -23.14365 | -44.48922 | 29247 ft | 495 kts | 65° |
| 2026-04-18 03:52 | -23.12991 | -44.45489 | 29441 ft | 497 kts | 64° |
| 2026-04-18 03:52 | -23.11607 | -44.42027 | 29671 ft | 499 kts | 64° |
| 2026-04-18 03:52 | -23.10225 | -44.38566 | 29911 ft | 501 kts | 64° |
| 2026-04-18 03:52 | -23.08837 | -44.35091 | 30096 ft | 502 kts | 64° |
| 2026-04-18 03:53 | -23.07446 | -44.31610 | 30308 ft | 503 kts | 64° |
| 2026-04-18 03:53 | -23.06052 | -44.28124 | 30546 ft | 504 kts | 64° |
| 2026-04-18 03:53 | -23.04655 | -44.24629 | 30738 ft | 504 kts | 64° |
| 2026-04-18 03:53 | -23.03257 | -44.21135 | 30942 ft | 505 kts | 64° |
| 2026-04-18 03:54 | -23.01856 | -44.17639 | 31088 ft | 506 kts | 64° |
| 2026-04-18 03:54 | -23.00447 | -44.14124 | 31251 ft | 508 kts | 64° |
| 2026-04-18 03:54 | -22.99035 | -44.10606 | 31399 ft | 509 kts | 64° |
| 2026-04-18 03:54 | -22.97621 | -44.07086 | 31625 ft | 509 kts | 63° |
| 2026-04-18 03:55 | -22.96206 | -44.03566 | 31816 ft | 509 kts | 64° |
| 2026-04-18 03:55 | -22.94786 | -44.00039 | 32012 ft | 510 kts | 64° |
| 2026-04-18 03:55 | -22.93367 | -43.96516 | 32228 ft | 510 kts | 64° |
| 2026-04-18 03:55 | -22.91948 | -43.92990 | 32425 ft | 510 kts | 64° |
| 2026-04-18 03:56 | -22.90524 | -43.89455 | 32613 ft | 511 kts | 63° |
| 2026-04-18 03:56 | -22.89113 | -43.85965 | 32753 ft | 514 kts | 63° |
| 2026-04-18 03:56 | -22.86241 | -43.78862 | 33117 ft | 514 kts | 63° |
| 2026-04-18 03:57 | -22.83367 | -43.71756 | 33504 ft | 515 kts | 63° |
| 2026-04-18 03:57 | -22.81929 | -43.68204 | 33686 ft | 515 kts | 63° |
| 2026-04-18 03:57 | -22.80489 | -43.64652 | 33857 ft | 515 kts | 63° |
| 2026-04-18 03:58 | -22.79046 | -43.61099 | 34034 ft | 515 kts | 63° |
| 2026-04-18 03:58 | -22.78089 | -43.58740 | 34147 ft | 515 kts | 63° |
| 2026-04-18 03:58 | -22.76647 | -43.55189 | 34268 ft | 516 kts | 63° |
| 2026-04-18 03:58 | -22.75200 | -43.51630 | 34408 ft | 516 kts | 63° |
| 2026-04-18 03:59 | -22.73752 | -43.48071 | 34541 ft | 517 kts | 63° |
| 2026-04-18 03:59 | -22.72302 | -43.44511 | 34679 ft | 517 kts | 63° |
| 2026-04-18 03:59 | -22.70849 | -43.40943 | 34824 ft | 517 kts | 63° |
| 2026-04-18 04:00 | -22.67955 | -43.33834 | 34903 ft | 515 kts | 63° |
| 2026-04-18 04:00 | -22.65057 | -43.26740 | 34870 ft | 515 kts | 63° |
| 2026-04-18 04:01 | -22.62137 | -43.19611 | 34883 ft | 520 kts | 63° |
| 2026-04-18 04:01 | -22.59198 | -43.12440 | 34889 ft | 521 kts | 63° |
| 2026-04-18 04:02 | -22.56260 | -43.05281 | 34877 ft | 519 kts | 63° |
| 2026-04-18 04:02 | -22.53321 | -42.98128 | 34901 ft | 521 kts | 63° |
| 2026-04-18 04:03 | -22.50378 | -42.90980 | 34885 ft | 521 kts | 63° |
| 2026-04-18 04:03 | -22.47424 | -42.83815 | 34899 ft | 522 kts | 63° |
| 2026-04-18 04:04 | -22.44472 | -42.76641 | 34906 ft | 521 kts | 63° |
| 2026-04-18 04:04 | -22.41522 | -42.69503 | 34915 ft | 519 kts | 63° |
| 2026-04-18 04:05 | -22.38588 | -42.62411 | 34895 ft | 515 kts | 63° |
| 2026-04-18 04:05 | -22.35662 | -42.55379 | 34909 ft | 512 kts | 63° |
| 2026-04-18 04:06 | -22.32748 | -42.48370 | 34928 ft | 519 kts | 63° |
| 2026-04-18 04:06 | -22.29727 | -42.41264 | 34921 ft | 520 kts | 58° |
| 2026-04-18 04:07 | -22.25632 | -42.34927 | 34926 ft | 512 kts | 47° |
| 2026-04-18 04:07 | -22.21288 | -42.28847 | 34912 ft | 512 kts | 47° |
| 2026-04-18 04:08 | -22.16959 | -42.22718 | 34912 ft | 513 kts | 48° |
| 2026-04-18 04:08 | -22.12649 | -42.16604 | 34910 ft | 511 kts | 48° |
| 2026-04-18 04:09 | -22.08341 | -42.10516 | 34908 ft | 511 kts | 47° |
| 2026-04-18 04:09 | -22.04042 | -42.04445 | 34896 ft | 508 kts | 47° |
| 2026-04-18 04:10 | -21.99774 | -41.98417 | 34895 ft | 505 kts | 47° |
| 2026-04-18 04:10 | -21.95480 | -41.92358 | 34916 ft | 512 kts | 48° |
| 2026-04-18 04:11 | -21.91143 | -41.86238 | 34903 ft | 514 kts | 48° |
| 2026-04-18 04:11 | -21.86799 | -41.80120 | 34889 ft | 514 kts | 47° |
| 2026-04-18 04:12 | -21.82447 | -41.73996 | 34888 ft | 514 kts | 47° |
| 2026-04-18 04:12 | -21.78139 | -41.67934 | 34893 ft | 513 kts | 48° |
| 2026-04-18 04:13 | -21.73816 | -41.61865 | 34764 ft | 509 kts | 47° |
| 2026-04-18 04:13 | -21.71670 | -41.58856 | 34264 ft | 507 kts | 47° |
| 2026-04-18 04:13 | -21.69528 | -41.55854 | 33638 ft | 507 kts | 47° |
| 2026-04-18 04:13 | -21.67379 | -41.52844 | 32948 ft | 506 kts | 48° |
| 2026-04-18 04:14 | -21.65241 | -41.49849 | 32418 ft | 502 kts | 48° |
| 2026-04-18 04:14 | -21.63132 | -41.46892 | 31935 ft | 497 kts | 48° |
| 2026-04-18 04:14 | -21.61044 | -41.43960 | 31490 ft | 492 kts | 48° |
| 2026-04-18 04:14 | -21.58969 | -41.41047 | 31030 ft | 487 kts | 48° |
| 2026-04-18 04:15 | -21.56914 | -41.38181 | 30581 ft | 482 kts | 48° |
| 2026-04-18 04:15 | -21.54878 | -41.35347 | 30138 ft | 476 kts | 48° |
| 2026-04-18 04:15 | -21.52864 | -41.32541 | 29614 ft | 473 kts | 48° |
| 2026-04-18 04:15 | -21.50872 | -41.29762 | 29121 ft | 467 kts | 48° |
| 2026-04-18 04:16 | -21.48749 | -41.27160 | 28605 ft | 457 kts | 38° |
| 2026-04-18 04:16 | -21.46341 | -41.24989 | 28093 ft | 450 kts | 34° |
| 2026-04-18 04:16 | -21.43919 | -41.22880 | 27619 ft | 446 kts | 34° |
| 2026-04-18 04:16 | -21.41525 | -41.20791 | 27156 ft | 441 kts | 34° |
| 2026-04-18 04:17 | -21.39162 | -41.18718 | 26543 ft | 437 kts | 35° |
| 2026-04-18 04:17 | -21.36827 | -41.16662 | 25972 ft | 431 kts | 35° |
| 2026-04-18 04:17 | -21.34524 | -41.14631 | 25394 ft | 427 kts | 36° |
| 2026-04-18 04:17 | -21.32246 | -41.12622 | 24823 ft | 422 kts | 36° |
| 2026-04-18 04:18 | -21.29991 | -41.10635 | 24291 ft | 417 kts | 36° |
| 2026-04-18 04:18 | -21.27759 | -41.08670 | 23758 ft | 412 kts | 36° |
| 2026-04-18 04:18 | -21.25550 | -41.06728 | 23158 ft | 408 kts | 36° |
| 2026-04-18 04:18 | -21.23366 | -41.04808 | 22555 ft | 404 kts | 36° |
| 2026-04-18 04:19 | -21.21205 | -41.02908 | 21905 ft | 400 kts | 37° |
| 2026-04-18 04:19 | -21.19066 | -41.01029 | 21301 ft | 396 kts | 37° |
| 2026-04-18 04:19 | -21.16943 | -40.99165 | 20693 ft | 393 kts | 37° |
| 2026-04-18 04:19 | -21.14838 | -40.97317 | 20090 ft | 390 kts | 37° |
| 2026-04-18 04:20 | -21.12753 | -40.95488 | 19565 ft | 385 kts | 37° |
| 2026-04-18 04:20 | -21.10698 | -40.93683 | 19057 ft | 380 kts | 37° |
| 2026-04-18 04:20 | -21.08672 | -40.91895 | 18573 ft | 375 kts | 37° |
| 2026-04-18 04:20 | -21.06674 | -40.90140 | 18072 ft | 369 kts | 37° |
| 2026-04-18 04:21 | -21.04699 | -40.88411 | 17585 ft | 364 kts | 37° |
| 2026-04-18 04:21 | -21.02743 | -40.86699 | 17115 ft | 362 kts | 37° |
| 2026-04-18 04:21 | -21.00819 | -40.85017 | 16643 ft | 361 kts | 37° |
| 2026-04-18 04:21 | -20.98886 | -40.83327 | 16185 ft | 359 kts | 38° |
| 2026-04-18 04:22 | -20.96957 | -40.81637 | 15722 ft | 357 kts | 38° |
| 2026-04-18 04:22 | -20.95042 | -40.79959 | 15319 ft | 354 kts | 38° |
| 2026-04-18 04:22 | -20.93149 | -40.78305 | 14940 ft | 350 kts | 38° |
| 2026-04-18 04:22 | -20.91274 | -40.76666 | 14532 ft | 347 kts | 38° |
| 2026-04-18 04:23 | -20.89404 | -40.75029 | 14108 ft | 346 kts | 38° |
| 2026-04-18 04:23 | -20.87547 | -40.73404 | 13673 ft | 345 kts | 38° |
| 2026-04-18 04:23 | -20.85697 | -40.71789 | 13221 ft | 342 kts | 38° |
| 2026-04-18 04:23 | -20.83859 | -40.70185 | 12796 ft | 339 kts | 38° |
| 2026-04-18 04:24 | -20.82039 | -40.68597 | 12374 ft | 337 kts | 38° |
| 2026-04-18 04:24 | -20.80323 | -40.66910 | 11944 ft | 335 kts | 48° |
| 2026-04-18 04:24 | -20.78914 | -40.64934 | 11500 ft | 333 kts | 54° |
| 2026-04-18 04:24 | -20.77598 | -40.62905 | 11087 ft | 331 kts | 55° |
| 2026-04-18 04:25 | -20.76287 | -40.60895 | 10686 ft | 328 kts | 55° |
| 2026-04-18 04:25 | -20.74977 | -40.58912 | 10332 ft | 324 kts | 54° |
| 2026-04-18 04:25 | -20.73686 | -40.56983 | 10160 ft | 314 kts | 54° |
| 2026-04-18 04:25 | -20.72435 | -40.55125 | 9954 ft | 303 kts | 54° |
| 2026-04-18 04:26 | -20.71207 | -40.53307 | 9472 ft | 301 kts | 54° |
| 2026-04-18 04:26 | -20.69985 | -40.51499 | 8931 ft | 299 kts | 54° |
| 2026-04-18 04:26 | -20.68770 | -40.49703 | 8463 ft | 296 kts | 54° |
| 2026-04-18 04:26 | -20.67575 | -40.47938 | 8041 ft | 292 kts | 54° |
| 2026-04-18 04:27 | -20.66392 | -40.46190 | 7651 ft | 288 kts | 53° |
| 2026-04-18 04:27 | -20.65220 | -40.44460 | 7290 ft | 288 kts | 53° |
| 2026-04-18 04:27 | -20.64045 | -40.42725 | 6919 ft | 289 kts | 53° |
| 2026-04-18 04:27 | -20.62862 | -40.40981 | 6541 ft | 291 kts | 53° |
| 2026-04-18 04:28 | -20.61691 | -40.39253 | 6165 ft | 291 kts | 53° |
| 2026-04-18 04:28 | -20.60491 | -40.37483 | 5739 ft | 291 kts | 54° |
| 2026-04-18 04:28 | -20.59311 | -40.35744 | 5446 ft | 286 kts | 53° |
| 2026-04-18 04:28 | -20.58168 | -40.34058 | 5125 ft | 283 kts | 53° |
| 2026-04-18 04:29 | -20.57016 | -40.32358 | 4747 ft | 282 kts | 53° |
| 2026-04-18 04:29 | -20.55867 | -40.30663 | 4421 ft | 280 kts | 53° |
| 2026-04-18 04:29 | -20.54729 | -40.28987 | 4092 ft | 277 kts | 53° |
| 2026-04-18 04:29 | -20.53623 | -40.27354 | 3993 ft | 265 kts | 53° |
| 2026-04-18 04:30 | -20.52566 | -40.25813 | 3986 ft | 250 kts | 50° |
| 2026-04-18 04:30 | -20.51301 | -40.24659 | 3974 ft | 233 kts | 24° |
| 2026-04-18 04:30 | -20.49787 | -40.24311 | 3863 ft | 218 kts | 357° |
| 2026-04-18 04:30 | -20.48301 | -40.24515 | 3611 ft | 214 kts | 349° |
| 2026-04-18 04:31 | -20.46847 | -40.24792 | 3312 ft | 212 kts | 350° |
| 2026-04-18 04:31 | -20.45413 | -40.25038 | 3095 ft | 202 kts | 351° |
| 2026-04-18 04:31 | -20.44079 | -40.25254 | 2999 ft | 186 kts | 351° |
| 2026-04-18 04:31 | -20.42837 | -40.25450 | 2809 ft | 177 kts | 352° |
| 2026-04-18 04:32 | -20.41630 | -40.25637 | 2520 ft | 174 kts | 352° |
| 2026-04-18 04:32 | -20.40441 | -40.25817 | 2215 ft | 170 kts | 352° |
| 2026-04-18 04:32 | -20.39285 | -40.25988 | 1882 ft | 165 kts | 353° |
| 2026-04-18 04:32 | -20.38189 | -40.26145 | 1778 ft | 158 kts | 352° |
| 2026-04-18 04:33 | -20.37123 | -40.26302 | 1782 ft | 152 kts | 352° |
| 2026-04-18 04:33 | -20.36089 | -40.26455 | 1791 ft | 152 kts | 352° |
| 2026-04-18 04:33 | -20.35026 | -40.26613 | 1793 ft | 152 kts | 352° |
| 2026-04-18 04:33 | -20.33994 | -40.26764 | 1638 ft | 151 kts | 353° |
| 2026-04-18 04:34 | -20.32951 | -40.26917 | 1409 ft | 151 kts | 352° |
| 2026-04-18 04:34 | -20.31913 | -40.27070 | 1180 ft | 150 kts | 352° |
| 2026-04-18 04:34 | -20.30880 | -40.27220 | 961 ft | 150 kts | 352° |
| 2026-04-18 04:34 | -20.29850 | -40.27375 | 745 ft | 149 kts | 351° |
| 2026-04-18 04:35 | -20.28826 | -40.27528 | 532 ft | 148 kts | 351° |
| 2026-04-18 04:35 | -20.27807 | -40.27673 | 318 ft | 148 kts | 351° |
| 2026-04-18 04:35 | -20.26787 | -40.27815 | 117 ft | 147 kts | 351° |
| 2026-04-18 04:35 | -20.25824 | -40.27962 | 47 ft | 125 kts | 352° |
| 2026-04-18 04:36 | -20.25291 | -40.28038 | 37 ft | 26 kts | 351° |
| 2026-04-18 04:36 | -20.25224 | -40.28084 | 36 ft | 13 kts | 258° |
| 2026-04-18 04:36 | -20.25271 | -40.28135 | 35 ft | 8 kts | 210° |
| 2026-04-18 04:36 | -20.25331 | -40.28171 | 34 ft | 12 kts | 210° |
| 2026-04-18 04:37 | -20.25412 | -40.28203 | 34 ft | 13 kts | 174° |
| 2026-04-18 04:37 | -20.25506 | -40.28188 | 38 ft | 14 kts | 169° |
| 2026-04-18 04:37 | -20.25606 | -40.28172 | 41 ft | 15 kts | 173° |
| 2026-04-18 04:37 | -20.25710 | -40.28157 | 40 ft | 15 kts | 171° |
| 2026-04-18 04:38 | -20.25818 | -40.28141 | 39 ft | 16 kts | 172° |
| 2026-04-18 04:38 | -20.25918 | -40.28125 | 41 ft | 14 kts | 172° |
| 2026-04-18 04:38 | -20.26016 | -40.28112 | 41 ft | 15 kts | 171° |
| 2026-04-18 04:38 | -20.26119 | -40.28097 | 39 ft | 15 kts | 173° |
| 2026-04-18 04:39 | -20.26225 | -40.28080 | 37 ft | 16 kts | 172° |
| 2026-04-18 04:39 | -20.26312 | -40.28068 | 40 ft | 8 kts | 173° |
| 2026-04-18 04:39 | -20.26369 | -40.28061 | 40 ft | 9 kts | 171° |
| 2026-04-18 04:39 | -20.26433 | -40.28050 | 40 ft | 10 kts | 171° |
| 2026-04-18 04:40 | -20.26505 | -40.28039 | 40 ft | 11 kts | 173° |
| 2026-04-18 04:40 | -20.26563 | -40.28048 | 40 ft | 4 kts | 257° |
| 2026-04-18 04:40 | -20.26562 | -40.28079 | 40 ft | 5 kts | 264° |
| 2026-04-18 04:40 | -20.26567 | -40.28120 | 40 ft | 6 kts | 263° |
| 2026-04-18 04:41 | -20.26571 | -40.28156 | 40 ft | 4 kts | 261° |
| 2026-04-18 04:41 | -20.26572 | -40.28160 | 40 ft | 0 kts | 260° |